createdAt,value
2022-07-29T00:00:00.685Z,47.9
2022-07-29T00:01:16.898Z,48
2022-07-29T00:02:33.113Z,48
2022-07-29T00:03:49.326Z,48.1
2022-07-29T00:05:05.543Z,48.1
2022-07-29T00:06:21.752Z,48.1
2022-07-29T00:07:37.969Z,48.3
2022-07-29T00:08:53.193Z,48.3
2022-07-29T00:10:09.409Z,48.3
2022-07-29T00:11:25.620Z,48.4
2022-07-29T00:12:41.834Z,48.4
2022-07-29T00:13:58.045Z,48.4
2022-07-29T00:15:14.256Z,48.5
2022-07-29T00:16:30.474Z,48.6
2022-07-29T00:17:46.681Z,48.6
2022-07-29T00:19:02.898Z,48.6
2022-07-29T00:20:19.109Z,48.5
2022-07-29T00:21:35.326Z,48.7
2022-07-29T00:22:51.538Z,48.6
2022-07-29T00:24:07.748Z,48.8
2022-07-29T00:25:22.978Z,48.8
2022-07-29T00:26:39.188Z,48.8
2022-07-29T00:27:55.400Z,48.7
2022-07-29T00:29:11.615Z,48.8
2022-07-29T00:30:27.827Z,48.8
2022-07-29T00:31:43.000Z,48.9
2022-07-29T00:33:00.255Z,48.8
2022-07-29T00:34:16.465Z,48.9
2022-07-29T00:35:32.676Z,48.9
2022-07-29T00:36:48.886Z,49
2022-07-29T00:38:05.107Z,49
2022-07-29T00:39:21.320Z,48.9
2022-07-29T00:40:37.531Z,49
2022-07-29T00:41:52.752Z,49
2022-07-29T00:43:08.968Z,49
2022-07-29T00:44:25.182Z,49.1
2022-07-29T00:45:41.391Z,49.1
2022-07-29T00:46:57.608Z,49.1
2022-07-29T00:48:13.817Z,49.2
2022-07-29T00:49:30.035Z,49.2
2022-07-29T00:50:46.246Z,49.2
2022-07-29T00:52:02.462Z,49.2
2022-07-29T00:53:18.673Z,49.2
2022-07-29T00:54:34.887Z,49.2
2022-07-29T00:55:51.097Z,49.3
2022-07-29T00:57:07.323Z,49.3
2022-07-29T00:58:22.541Z,49.3
2022-07-29T00:59:38.753Z,49.3
2022-07-29T01:00:54.962Z,49.3
2022-07-29T01:02:11.180Z,49.3
2022-07-29T01:03:27.395Z,49.3
2022-07-29T01:04:43.599Z,49.3
2022-07-29T01:05:59.813Z,49.3
2022-07-29T01:07:16.033Z,49.4
2022-07-29T01:08:32.242Z,49.4
2022-07-29T01:09:48.450Z,49.4
2022-07-29T01:11:04.667Z,49.4
2022-07-29T01:12:20.879Z,49.4
2022-07-29T01:13:37.092Z,49.5
2022-07-29T01:14:52.366Z,49.5
2022-07-29T01:16:08.536Z,49.5
2022-07-29T01:17:24.750Z,49.5
2022-07-29T01:18:40.958Z,49.5
2022-07-29T01:19:57.188Z,49.5
2022-07-29T01:21:13.388Z,49.5
2022-07-29T01:22:29.595Z,49.5
2022-07-29T01:23:45.813Z,49.5
2022-07-29T01:25:02.028Z,49.5
2022-07-29T01:26:18.235Z,49.5
2022-07-29T01:27:34.446Z,49.5
2022-07-29T01:28:50.659Z,49.4
2022-07-29T01:30:06.872Z,49.4
2022-07-29T01:31:22.101Z,49.4
2022-07-29T01:32:38.322Z,49.4
2022-07-29T01:33:54.527Z,49.4
2022-07-29T01:35:10.744Z,49.4
2022-07-29T01:36:26.958Z,49.4
2022-07-29T01:37:43.165Z,49.5
2022-07-29T01:38:59.385Z,49.5
2022-07-29T01:40:15.591Z,49.5
2022-07-29T01:41:31.809Z,49.5
2022-07-29T01:42:48.016Z,49.5
2022-07-29T01:44:04.231Z,49.6
2022-07-29T01:45:20.446Z,49.6
2022-07-29T01:46:36.655Z,49.6
2022-07-29T01:47:51.892Z,49.6
2022-07-29T01:49:08.099Z,49.6
2022-07-29T01:50:24.319Z,49.7
2022-07-29T01:51:40.530Z,49.8
2022-07-29T01:52:56.740Z,49.8
2022-07-29T01:54:12.953Z,49.8
2022-07-29T01:55:29.168Z,49.8
2022-07-29T01:56:45.382Z,49.9
2022-07-29T01:58:01.595Z,49.9
2022-07-29T01:59:17.809Z,49.9
2022-07-29T02:00:34.022Z,49.9
2022-07-29T02:01:50.234Z,49.9
2022-07-29T02:03:06.442Z,50
2022-07-29T02:04:21.673Z,50
2022-07-29T02:05:36.901Z,50
2022-07-29T02:06:53.112Z,50
2022-07-29T02:08:09.329Z,50
2022-07-29T02:09:25.535Z,50
2022-07-29T02:10:41.748Z,50
2022-07-29T02:11:57.961Z,50
2022-07-29T02:13:14.176Z,50
2022-07-29T02:14:30.393Z,50
2022-07-29T02:15:46.604Z,50
2022-07-29T02:17:02.812Z,50
2022-07-29T02:18:19.025Z,50
2022-07-29T02:19:34.000Z,50
2022-07-29T02:20:51.451Z,50
2022-07-29T02:22:07.664Z,50
2022-07-29T02:23:22.897Z,50.1
2022-07-29T02:24:39.108Z,50.1
2022-07-29T02:25:55.319Z,50
2022-07-29T02:27:11.536Z,50.1
2022-07-29T02:28:27.746Z,50.1
2022-07-29T02:29:43.960Z,50.1
2022-07-29T02:31:00.173Z,50.1
2022-07-29T02:32:16.384Z,50
2022-07-29T02:33:32.220Z,50.1
2022-07-29T02:34:48.809Z,50
2022-07-29T02:36:05.023Z,50.1
2022-07-29T02:37:21.236Z,50.1
2022-07-29T02:38:37.452Z,50.1
2022-07-29T02:39:52.681Z,50.1
2022-07-29T02:41:08.894Z,50
2022-07-29T02:42:25.109Z,50
2022-07-29T02:43:41.316Z,49.9
2022-07-29T02:44:57.535Z,49.9
2022-07-29T02:46:13.746Z,49.8
2022-07-29T02:47:29.956Z,49.8
2022-07-29T02:48:46.168Z,49.8
2022-07-29T02:50:02.380Z,49.7
2022-07-29T02:51:18.589Z,49.7
2022-07-29T02:52:34.803Z,49.7
2022-07-29T02:53:51.016Z,49.6
2022-07-29T02:55:07.236Z,49.6
2022-07-29T02:56:23.445Z,49.6
2022-07-29T02:57:38.672Z,49.6
2022-07-29T02:58:54.883Z,49.5
2022-07-29T03:00:11.096Z,49.5
2022-07-29T03:01:27.310Z,49.5
2022-07-29T03:02:43.529Z,49.5
2022-07-29T03:03:59.737Z,49.5
2022-07-29T03:05:15.948Z,49.5
2022-07-29T03:06:32.168Z,49.6
2022-07-29T03:07:48.380Z,49.5
2022-07-29T03:09:04.591Z,49.6
2022-07-29T03:10:20.803Z,49.6
2022-07-29T03:11:36.633Z,49.6
2022-07-29T03:12:53.228Z,49.6
2022-07-29T03:14:08.458Z,49.6
2022-07-29T03:15:24.674Z,49.6
2022-07-29T03:16:40.902Z,49.6
2022-07-29T03:17:57.096Z,49.6
2022-07-29T03:19:13.309Z,49.6
2022-07-29T03:20:29.523Z,49.6
2022-07-29T03:21:45.729Z,49.6
2022-07-29T03:23:01.948Z,49.6
2022-07-29T03:24:18.161Z,49.6
2022-07-29T03:25:34.369Z,49.7
2022-07-29T03:26:50.588Z,49.7
2022-07-29T03:28:06.794Z,49.7
2022-07-29T03:29:23.026Z,49.7
2022-07-29T03:30:38.243Z,49.7
2022-07-29T03:31:54.456Z,49.7
2022-07-29T03:33:10.668Z,49.7
2022-07-29T03:34:26.875Z,49.7
2022-07-29T03:35:43.091Z,49.7
2022-07-29T03:36:59.308Z,49.8
2022-07-29T03:38:15.519Z,49.8
2022-07-29T03:39:31.729Z,49.8
2022-07-29T03:40:47.943Z,49.8
2022-07-29T03:42:04.160Z,49.8
2022-07-29T03:43:20.369Z,49.9
2022-07-29T03:44:36.584Z,49.8
2022-07-29T03:45:52.790Z,49.9
2022-07-29T03:47:08.018Z,49.9
2022-07-29T03:48:24.234Z,49.9
2022-07-29T03:49:40.447Z,49.9
2022-07-29T03:50:56.657Z,49.9
2022-07-29T03:52:12.870Z,49.9
2022-07-29T03:53:29.088Z,49.9
2022-07-29T03:54:45.297Z,50
2022-07-29T03:56:01.512Z,50
2022-07-29T03:57:17.723Z,50
2022-07-29T03:58:33.941Z,50.1
2022-07-29T03:59:50.153Z,50.1
2022-07-29T04:01:06.361Z,50.1
2022-07-29T04:02:22.578Z,50.1
2022-07-29T04:03:37.803Z,50.2
2022-07-29T04:04:54.023Z,50.2
2022-07-29T04:06:10.232Z,50.2
2022-07-29T04:07:26.459Z,50.2
2022-07-29T04:08:42.661Z,50.3
2022-07-29T04:09:58.874Z,50.3
2022-07-29T04:11:15.084Z,50.3
2022-07-29T04:12:31.294Z,50.3
2022-07-29T04:13:47.512Z,50.3
2022-07-29T04:15:03.723Z,50.3
2022-07-29T04:16:19.932Z,50.4
2022-07-29T04:17:36.144Z,50.4
2022-07-29T04:18:52.355Z,50.5
2022-07-29T04:20:07.591Z,50.5
2022-07-29T04:21:23.806Z,50.6
2022-07-29T04:22:40.017Z,50.6
2022-07-29T04:23:56.224Z,50.6
2022-07-29T04:25:12.437Z,50.6
2022-07-29T04:26:28.654Z,50.6
2022-07-29T04:27:44.865Z,50.7
2022-07-29T04:29:01.077Z,50.7
2022-07-29T04:30:17.293Z,50.7
2022-07-29T04:31:33.508Z,50.7
2022-07-29T04:32:49.721Z,50.7
2022-07-29T04:34:05.946Z,50.6
2022-07-29T04:35:22.144Z,50.6
2022-07-29T04:36:37.374Z,50.6
2022-07-29T04:37:53.584Z,50.6
2022-07-29T04:39:09.802Z,50.6
2022-07-29T04:40:26.012Z,50.5
2022-07-29T04:41:42.224Z,50.5
2022-07-29T04:42:58.436Z,50.5
2022-07-29T04:44:14.643Z,50.5
2022-07-29T04:45:30.865Z,50.5
2022-07-29T04:46:47.072Z,50.5
2022-07-29T04:48:03.287Z,50.6
2022-07-29T04:49:19.500Z,50.6
2022-07-29T04:50:35.715Z,50.6
2022-07-29T04:51:51.921Z,50.5
2022-07-29T04:53:08.141Z,50.6
2022-07-29T04:54:23.367Z,50.6
2022-07-29T04:55:39.578Z,50.6
2022-07-29T04:56:55.794Z,50.6
2022-07-29T04:58:12.007Z,50.7
2022-07-29T04:59:28.216Z,50.7
2022-07-29T05:00:44.431Z,50.7
2022-07-29T05:02:00.648Z,50.7
2022-07-29T05:03:16.853Z,50.8
2022-07-29T05:04:33.071Z,50.8
2022-07-29T05:05:48.000Z,50.8
2022-07-29T05:07:05.495Z,50.8
2022-07-29T05:08:21.709Z,50.9
2022-07-29T05:09:37.925Z,50.9
2022-07-29T05:10:53.000Z,50.9
2022-07-29T05:12:10.348Z,50.9
2022-07-29T05:13:25.575Z,51
2022-07-29T05:14:41.793Z,51
2022-07-29T05:15:57.999Z,51
2022-07-29T05:17:14.220Z,51
2022-07-29T05:18:30.427Z,51
2022-07-29T05:19:46.638Z,51
2022-07-29T05:21:02.855Z,51
2022-07-29T05:22:19.066Z,50.9
2022-07-29T05:23:35.274Z,50.9
2022-07-29T05:24:51.491Z,51
2022-07-29T05:26:07.704Z,51
2022-07-29T05:27:23.919Z,51
2022-07-29T05:28:40.132Z,51
2022-07-29T05:29:55.357Z,51
2022-07-29T05:31:11.567Z,51
2022-07-29T05:32:27.787Z,51
2022-07-29T05:33:43.998Z,51
2022-07-29T05:35:00.211Z,51
2022-07-29T05:36:16.424Z,51
2022-07-29T05:37:32.632Z,51
2022-07-29T05:38:48.844Z,51
2022-07-29T05:40:05.058Z,51
2022-07-29T05:41:21.278Z,51.1
2022-07-29T05:42:37.485Z,51
2022-07-29T05:43:53.704Z,51.1
2022-07-29T05:45:09.914Z,51.2
2022-07-29T05:46:25.141Z,51.2
2022-07-29T05:47:41.356Z,51.2
2022-07-29T05:48:57.564Z,51.2
2022-07-29T05:50:13.783Z,51.2
2022-07-29T05:51:29.996Z,51.2
2022-07-29T05:52:46.205Z,51.2
2022-07-29T05:54:02.417Z,51.2
2022-07-29T05:55:18.635Z,51.3
2022-07-29T05:56:34.840Z,51.3
2022-07-29T05:57:51.053Z,51.3
2022-07-29T05:59:07.269Z,51.2
2022-07-29T06:00:23.483Z,51.2
2022-07-29T06:01:39.698Z,51.2
2022-07-29T06:02:54.919Z,51.2
2022-07-29T06:04:11.133Z,51.2
2022-07-29T06:05:27.349Z,51.2
2022-07-29T06:06:43.559Z,51.2
2022-07-29T06:07:59.776Z,51.3
2022-07-29T06:09:15.983Z,51.2
2022-07-29T06:10:32.197Z,51.2
2022-07-29T06:11:48.414Z,51.3
2022-07-29T06:13:04.623Z,51.2
2022-07-29T06:14:20.835Z,51.3
2022-07-29T06:15:37.054Z,51.3
2022-07-29T06:16:53.266Z,51.3
2022-07-29T06:18:09.477Z,51.4
2022-07-29T06:19:25.685Z,51.4
2022-07-29T06:20:40.920Z,51.4
2022-07-29T06:21:57.128Z,51.5
2022-07-29T06:23:13.339Z,51.4
2022-07-29T06:24:29.555Z,51.5
2022-07-29T06:25:45.767Z,51.4
2022-07-29T06:27:01.983Z,51.4
2022-07-29T06:28:18.196Z,51.5
2022-07-29T06:29:34.409Z,51.4
2022-07-29T06:30:50.000Z,51.5
2022-07-29T06:32:06.827Z,51.5
2022-07-29T06:33:23.047Z,51.5
2022-07-29T06:34:39.257Z,51.5
2022-07-29T06:35:55.466Z,51.5
2022-07-29T06:37:10.696Z,51.6
2022-07-29T06:38:26.917Z,51.6
2022-07-29T06:39:43.123Z,51.5
2022-07-29T06:40:59.341Z,51.5
2022-07-29T06:42:15.555Z,51.5
2022-07-29T06:43:31.768Z,51.6
2022-07-29T06:44:47.978Z,50.7
2022-07-29T06:46:04.192Z,50
2022-07-29T06:47:20.397Z,50.8
2022-07-29T06:48:36.616Z,51.2
2022-07-29T06:49:52.830Z,51.4
2022-07-29T06:51:09.038Z,51.6
2022-07-29T06:52:25.252Z,52
2022-07-29T06:53:40.478Z,52.2
2022-07-29T06:54:56.695Z,52.6
2022-07-29T06:56:12.909Z,52.7
2022-07-29T06:57:29.118Z,52.8
2022-07-29T06:58:45.334Z,53
2022-07-29T07:00:01.543Z,53.3
2022-07-29T07:01:17.755Z,53.4
2022-07-29T07:02:33.968Z,53.4
2022-07-29T07:03:50.186Z,53.5
2022-07-29T07:05:06.399Z,53.5
2022-07-29T07:06:22.605Z,53.5
2022-07-29T07:07:38.818Z,53.5
2022-07-29T07:08:55.030Z,53.5
2022-07-29T07:10:10.266Z,53.5
2022-07-29T07:11:26.475Z,53.6
2022-07-29T07:12:42.691Z,53.6
2022-07-29T07:13:58.901Z,53.6
2022-07-29T07:15:15.117Z,53.7
2022-07-29T07:16:31.331Z,53.8
2022-07-29T07:17:47.546Z,53.8
2022-07-29T07:19:03.756Z,53.8
2022-07-29T07:20:19.966Z,53.8
2022-07-29T07:21:36.180Z,53.8
2022-07-29T07:22:52.390Z,53.8
2022-07-29T07:24:08.607Z,53.9
2022-07-29T07:25:24.822Z,53.9
2022-07-29T07:26:40.042Z,53.8
2022-07-29T07:27:56.259Z,53.8
2022-07-29T07:29:12.472Z,53.7
2022-07-29T07:30:28.683Z,53.6
2022-07-29T07:31:44.895Z,53.6
2022-07-29T07:33:01.109Z,53.5
2022-07-29T07:34:17.318Z,53.4
2022-07-29T07:35:33.536Z,53.4
2022-07-29T07:36:49.000Z,53.4
2022-07-29T07:38:05.956Z,53.4
2022-07-29T07:39:22.171Z,53.3
2022-07-29T07:40:38.383Z,53.1
2022-07-29T07:41:54.601Z,53
2022-07-29T07:43:10.806Z,53.1
2022-07-29T07:44:27.019Z,53
2022-07-29T07:45:42.253Z,53.1
2022-07-29T07:46:58.459Z,53.1
2022-07-29T07:48:14.677Z,53
2022-07-29T07:49:30.881Z,53
2022-07-29T07:50:47.095Z,53
2022-07-29T07:52:03.303Z,53
2022-07-29T07:53:19.516Z,52.9
2022-07-29T07:54:35.730Z,52.9
2022-07-29T07:55:51.942Z,52.8
2022-07-29T07:57:08.151Z,52.9
2022-07-29T07:58:24.360Z,52.9
2022-07-29T07:59:40.572Z,52.9
2022-07-29T08:00:56.786Z,52.8
2022-07-29T08:02:12.016Z,53
2022-07-29T08:03:28.229Z,53
2022-07-29T08:04:44.434Z,53
2022-07-29T08:06:00.649Z,53
2022-07-29T08:07:16.859Z,53
2022-07-29T08:08:33.073Z,53
2022-07-29T08:09:49.281Z,53
2022-07-29T08:11:05.495Z,53
2022-07-29T08:12:21.705Z,53
2022-07-29T08:13:37.914Z,53
2022-07-29T08:14:54.123Z,53
2022-07-29T08:16:10.338Z,53
2022-07-29T08:17:26.558Z,53
2022-07-29T08:18:42.897Z,52.9
2022-07-29T08:19:58.127Z,52.8
2022-07-29T08:21:14.332Z,52.8
2022-07-29T08:22:30.543Z,52.7
2022-07-29T08:23:46.750Z,52.7
2022-07-29T08:25:02.968Z,52.7
2022-07-29T08:26:19.179Z,52.6
2022-07-29T08:27:35.390Z,52.8
2022-07-29T08:28:51.595Z,52.8
2022-07-29T08:30:07.815Z,52.7
2022-07-29T08:31:24.020Z,52.6
2022-07-29T08:32:40.234Z,52.6
2022-07-29T08:33:56.439Z,52.4
2022-07-29T08:35:12.658Z,52.5
2022-07-29T08:36:27.882Z,52.5
2022-07-29T08:37:44.096Z,52.4
2022-07-29T08:39:00.304Z,52.4
2022-07-29T08:40:16.512Z,52.3
2022-07-29T08:41:32.000Z,52.4
2022-07-29T08:42:48.934Z,52.2
2022-07-29T08:44:05.148Z,52.2
2022-07-29T08:45:21.357Z,52.1
2022-07-29T08:46:37.572Z,51.9
2022-07-29T08:47:53.788Z,51.7
2022-07-29T08:49:09.990Z,51.4
2022-07-29T08:50:26.240Z,51.3
2022-07-29T08:51:42.417Z,51
2022-07-29T08:52:57.645Z,51
2022-07-29T08:54:13.444Z,50.9
2022-07-29T08:55:30.067Z,50.5
2022-07-29T08:56:46.282Z,50.4
2022-07-29T08:58:02.487Z,50.4
2022-07-29T08:59:18.705Z,50.1
2022-07-29T09:00:34.908Z,50.1
2022-07-29T09:01:51.126Z,50
2022-07-29T09:03:07.332Z,49.9
2022-07-29T09:04:23.546Z,49.5
2022-07-29T09:05:39.756Z,49.5
2022-07-29T09:06:55.968Z,49.8
2022-07-29T09:08:12.181Z,49.8
2022-07-29T09:09:28.391Z,49.7
2022-07-29T09:10:44.606Z,49.8
2022-07-29T09:11:59.829Z,49.6
2022-07-29T09:13:16.042Z,49.2
2022-07-29T09:14:32.255Z,49.1
2022-07-29T09:15:48.467Z,49.2
2022-07-29T09:17:04.675Z,49.3
2022-07-29T09:18:20.890Z,49.2
2022-07-29T09:19:37.101Z,49.1
2022-07-29T09:20:53.310Z,49.1
2022-07-29T09:22:09.522Z,49.1
2022-07-29T09:23:25.729Z,49.1
2022-07-29T09:24:41.939Z,49.1
2022-07-29T09:25:58.156Z,49.1
2022-07-29T09:27:14.371Z,49
2022-07-29T09:28:29.594Z,49
2022-07-29T09:29:45.804Z,48.9
2022-07-29T09:31:02.016Z,49
2022-07-29T09:32:18.230Z,48.9
2022-07-29T09:33:34.440Z,48.9
2022-07-29T09:34:50.654Z,48.7
2022-07-29T09:36:06.863Z,48.4
2022-07-29T09:37:23.079Z,48.3
2022-07-29T09:38:39.284Z,48.4
2022-07-29T09:39:55.498Z,48.3
2022-07-29T09:41:11.707Z,48.5
2022-07-29T09:42:27.922Z,48.7
2022-07-29T09:43:44.130Z,48.8
2022-07-29T09:44:59.000Z,49
2022-07-29T09:46:16.000Z,48.9
2022-07-29T09:47:31.807Z,48.8
2022-07-29T09:48:47.995Z,48.4
2022-07-29T09:50:04.204Z,48.2
2022-07-29T09:51:20.415Z,48.1
2022-07-29T09:52:36.627Z,47.8
2022-07-29T09:53:52.837Z,47.8
2022-07-29T09:55:08.629Z,47.6
2022-07-29T09:56:25.262Z,47.3
2022-07-29T09:57:41.051Z,47.1
2022-07-29T09:58:57.679Z,46.9
2022-07-29T10:00:13.891Z,46.8
2022-07-29T10:01:30.105Z,47.1
2022-07-29T10:02:46.310Z,47.1
2022-07-29T10:04:01.541Z,47.2
2022-07-29T10:05:17.753Z,47.1
2022-07-29T10:06:33.964Z,47
2022-07-29T10:07:50.177Z,47.2
2022-07-29T10:09:06.380Z,47.3
2022-07-29T10:10:22.591Z,47.4
2022-07-29T10:11:38.807Z,47.3
2022-07-29T10:12:55.013Z,47.3
2022-07-29T10:14:11.233Z,47.3
2022-07-29T10:15:27.438Z,47.3
2022-07-29T10:16:43.654Z,47.4
2022-07-29T10:17:59.866Z,47.3
2022-07-29T10:19:16.075Z,47.2
2022-07-29T10:20:31.300Z,47.1
2022-07-29T10:21:47.510Z,47.1
2022-07-29T10:23:03.721Z,47.2
2022-07-29T10:24:19.929Z,47.2
2022-07-29T10:25:36.146Z,47.2
2022-07-29T10:26:52.360Z,47.2
2022-07-29T10:28:08.570Z,47.2
2022-07-29T10:29:24.774Z,47.2
2022-07-29T10:30:40.994Z,47.1
2022-07-29T10:31:57.197Z,47.1
2022-07-29T10:33:13.416Z,47.1
2022-07-29T10:34:29.618Z,47
2022-07-29T10:35:45.832Z,47
2022-07-29T10:37:02.047Z,47
2022-07-29T10:38:17.268Z,47.1
2022-07-29T10:39:33.488Z,47.1
2022-07-29T10:40:49.698Z,47
2022-07-29T10:42:05.902Z,47
2022-07-29T10:43:22.117Z,46.8
2022-07-29T10:44:38.329Z,46.9
2022-07-29T10:45:54.542Z,46.9
2022-07-29T10:47:10.328Z,46.9
2022-07-29T10:48:26.965Z,46.9
2022-07-29T10:49:43.168Z,46.9
2022-07-29T10:50:59.387Z,46.9
2022-07-29T10:52:15.590Z,46.8
2022-07-29T10:53:31.809Z,46.7
2022-07-29T10:54:47.032Z,46.7
2022-07-29T10:56:03.247Z,46.7
2022-07-29T10:57:19.460Z,46.6
2022-07-29T10:58:35.671Z,46.6
2022-07-29T10:59:51.882Z,46.4
2022-07-29T11:01:08.086Z,46.4
2022-07-29T11:02:24.305Z,46.4
2022-07-29T11:03:40.516Z,46.3
2022-07-29T11:04:56.724Z,46.2
2022-07-29T11:06:12.935Z,46.2
2022-07-29T11:07:29.143Z,46.1
2022-07-29T11:08:45.358Z,46.1
2022-07-29T11:10:01.562Z,46.1
2022-07-29T11:11:17.774Z,46
2022-07-29T11:12:33.989Z,46
2022-07-29T11:13:50.202Z,45.9
2022-07-29T11:15:06.416Z,45.9
2022-07-29T11:16:22.000Z,45.8
2022-07-29T11:17:37.863Z,45.8
2022-07-29T11:18:54.061Z,45.7
2022-07-29T11:20:10.272Z,45.7
2022-07-29T11:21:26.486Z,45.6
2022-07-29T11:22:42.697Z,45.5
2022-07-29T11:23:58.907Z,45.5
2022-07-29T11:25:15.123Z,45.4
2022-07-29T11:26:31.332Z,45.4
2022-07-29T11:27:47.538Z,45.4
2022-07-29T11:29:03.759Z,45.3
2022-07-29T11:30:19.969Z,45.2
2022-07-29T11:31:36.175Z,45.1
2022-07-29T11:32:52.393Z,45
2022-07-29T11:34:07.614Z,45
2022-07-29T11:35:23.822Z,45.2
2022-07-29T11:36:39.000Z,45.1
2022-07-29T11:37:56.252Z,45
2022-07-29T11:39:12.459Z,45.1
2022-07-29T11:40:28.674Z,45
2022-07-29T11:41:44.886Z,44.9
2022-07-29T11:43:01.092Z,45
2022-07-29T11:44:17.306Z,45.1
2022-07-29T11:45:33.515Z,45.1
2022-07-29T11:46:49.734Z,45
2022-07-29T11:48:05.941Z,45.7
2022-07-29T11:49:22.149Z,46
2022-07-29T11:50:37.378Z,46.2
2022-07-29T11:51:53.596Z,46.4
2022-07-29T11:53:09.799Z,46.7
2022-07-29T11:54:26.015Z,47.1
2022-07-29T11:55:42.221Z,47.4
2022-07-29T11:56:58.441Z,48
2022-07-29T11:58:14.652Z,48.3
2022-07-29T11:59:30.857Z,48.5
2022-07-29T12:00:47.070Z,49
2022-07-29T12:02:03.277Z,49
2022-07-29T12:03:19.490Z,50.1
2022-07-29T12:04:35.699Z,50.7
2022-07-29T12:05:51.918Z,51.6
2022-07-29T12:07:06.000Z,51.2
2022-07-29T12:08:22.000Z,51.5
2022-07-29T12:09:39.565Z,51.7
2022-07-29T12:10:55.777Z,52
2022-07-29T12:12:11.987Z,51.9
2022-07-29T12:13:28.203Z,52
2022-07-29T12:14:44.412Z,51.7
2022-07-29T12:16:00.626Z,51.6
2022-07-29T12:17:16.830Z,51.6
2022-07-29T12:18:33.044Z,51.6
2022-07-29T12:19:48.000Z,51.9
2022-07-29T12:21:05.470Z,51.6
2022-07-29T12:22:21.679Z,51.5
2022-07-29T12:23:36.907Z,51.4
2022-07-29T12:24:53.114Z,51.4
2022-07-29T12:26:09.331Z,51.3
2022-07-29T12:27:25.540Z,51.1
2022-07-29T12:28:41.755Z,51.1
2022-07-29T12:29:57.963Z,51
2022-07-29T12:31:14.176Z,51
2022-07-29T12:32:30.385Z,50.9
2022-07-29T12:33:46.598Z,50.8
2022-07-29T12:35:02.811Z,50.6
2022-07-29T12:36:19.018Z,50.6
2022-07-29T12:37:34.000Z,50.5
2022-07-29T12:38:51.447Z,50.8
2022-07-29T12:40:06.671Z,51.1
2022-07-29T12:41:22.881Z,51.1
2022-07-29T12:42:39.101Z,51.3
2022-07-29T12:43:55.310Z,51.3
2022-07-29T12:45:11.515Z,51.1
2022-07-29T12:46:27.730Z,51.1
2022-07-29T12:47:43.947Z,51.1
2022-07-29T12:49:00.156Z,51.1
2022-07-29T12:50:16.368Z,51.3
2022-07-29T12:51:32.579Z,50.9
2022-07-29T12:52:48.788Z,50.6
2022-07-29T12:54:05.002Z,50.1
2022-07-29T12:55:21.212Z,50
2022-07-29T12:56:36.439Z,50
2022-07-29T12:57:52.647Z,49.9
2022-07-29T12:59:08.856Z,49.9
2022-07-29T13:00:25.074Z,50
2022-07-29T13:01:41.280Z,49.9
2022-07-29T13:02:57.495Z,49.8
2022-07-29T13:04:13.000Z,49.9
2022-07-29T13:05:29.919Z,49.9
2022-07-29T13:06:46.129Z,49.9
2022-07-29T13:08:02.344Z,49.9
2022-07-29T13:09:18.552Z,50
2022-07-29T13:10:34.762Z,50.1
2022-07-29T13:11:50.000Z,50.5
2022-07-29T13:13:06.204Z,50.5
2022-07-29T13:14:22.422Z,50.8
2022-07-29T13:15:38.634Z,50.8
2022-07-29T13:16:54.844Z,50.9
2022-07-29T13:18:11.052Z,51
2022-07-29T13:19:27.265Z,51.1
2022-07-29T13:20:43.475Z,51.3
2022-07-29T13:21:59.688Z,51.4
2022-07-29T13:23:15.895Z,51.4
2022-07-29T13:24:32.115Z,51.4
2022-07-29T13:25:48.317Z,51.5
2022-07-29T13:27:04.534Z,51.4
2022-07-29T13:28:20.747Z,51.1
2022-07-29T13:29:36.959Z,51
2022-07-29T13:30:53.168Z,50.9
2022-07-29T13:32:08.396Z,50.7
2022-07-29T13:33:24.606Z,50.6
2022-07-29T13:34:40.817Z,50.4
2022-07-29T13:35:56.000Z,50.3
2022-07-29T13:37:13.247Z,50.1
2022-07-29T13:38:29.457Z,50
2022-07-29T13:39:45.672Z,49.8
2022-07-29T13:41:01.882Z,49.6
2022-07-29T13:42:18.095Z,49.7
2022-07-29T13:43:34.303Z,49.4
2022-07-29T13:44:50.515Z,49.3
2022-07-29T13:46:06.730Z,49.3
2022-07-29T13:47:22.936Z,49.2
2022-07-29T13:48:38.162Z,49.1
2022-07-29T13:49:54.373Z,49
2022-07-29T13:51:10.586Z,49.1
2022-07-29T13:52:26.803Z,49.1
2022-07-29T13:53:43.013Z,49.1
2022-07-29T13:54:59.226Z,49.1
2022-07-29T13:56:15.436Z,49.1
2022-07-29T13:57:31.645Z,49.1
2022-07-29T13:58:47.864Z,49.5
2022-07-29T14:00:04.075Z,49.7
2022-07-29T14:01:20.288Z,49.7
2022-07-29T14:02:36.492Z,50
2022-07-29T14:03:52.710Z,50.3
2022-07-29T14:05:07.936Z,50.2
2022-07-29T14:06:24.148Z,50.6
2022-07-29T14:07:40.359Z,50.5
2022-07-29T14:08:56.566Z,50.5
2022-07-29T14:10:12.781Z,50.7
2022-07-29T14:11:28.998Z,50.8
2022-07-29T14:12:45.209Z,50.7
2022-07-29T14:14:01.420Z,50.8
2022-07-29T14:15:17.624Z,51
2022-07-29T14:16:33.836Z,51
2022-07-29T14:17:50.048Z,51.1
2022-07-29T14:19:06.260Z,50.9
2022-07-29T14:20:22.475Z,50.9
2022-07-29T14:21:38.682Z,50.8
2022-07-29T14:22:54.000Z,50.6
2022-07-29T14:24:10.669Z,50.5
2022-07-29T14:25:26.340Z,50.4
2022-07-29T14:26:42.551Z,50.4
2022-07-29T14:27:58.761Z,50.4
2022-07-29T14:29:14.971Z,50.5
2022-07-29T14:30:31.186Z,50.5
2022-07-29T14:31:47.394Z,50.5
2022-07-29T14:33:03.609Z,50.5
2022-07-29T14:34:19.823Z,50.5
2022-07-29T14:35:36.030Z,50.5
2022-07-29T14:36:52.244Z,50.4
2022-07-29T14:38:08.449Z,50.4
2022-07-29T14:39:24.662Z,50.4
2022-07-29T14:40:40.874Z,50.5
2022-07-29T14:41:56.107Z,50.5
2022-07-29T14:43:12.320Z,50.5
2022-07-29T14:44:28.530Z,50.5
2022-07-29T14:45:44.734Z,50.5
2022-07-29T14:47:00.946Z,50.5
2022-07-29T14:48:17.166Z,50.5
2022-07-29T14:49:33.374Z,50.5
2022-07-29T14:50:49.587Z,50.4
2022-07-29T14:52:05.792Z,50.4
2022-07-29T14:53:21.025Z,50.4
2022-07-29T14:54:37.238Z,50.4
2022-07-29T14:55:53.445Z,50.3
2022-07-29T14:57:09.683Z,50.3
2022-07-29T14:58:25.868Z,50.5
2022-07-29T14:59:42.084Z,50.6
2022-07-29T15:00:58.294Z,50.5
2022-07-29T15:02:14.000Z,50.9
2022-07-29T15:03:30.715Z,50.6
2022-07-29T15:04:46.925Z,50.7
2022-07-29T15:06:03.133Z,50.9
2022-07-29T15:07:19.345Z,50.8
2022-07-29T15:08:35.555Z,51.3
2022-07-29T15:09:50.790Z,51.4
2022-07-29T15:11:06.994Z,51.6
2022-07-29T15:12:23.206Z,51.4
2022-07-29T15:13:39.423Z,51.3
2022-07-29T15:14:55.632Z,51.2
2022-07-29T15:16:11.000Z,51.2
2022-07-29T15:17:28.051Z,51.1
2022-07-29T15:18:44.265Z,51
2022-07-29T15:20:00.480Z,50.9
2022-07-29T15:21:16.000Z,50.8
2022-07-29T15:22:32.900Z,50.8
2022-07-29T15:23:49.109Z,50.8
2022-07-29T15:25:05.319Z,50.5
2022-07-29T15:26:20.547Z,49.3
2022-07-29T15:27:36.762Z,48.6
2022-07-29T15:28:52.974Z,47.3
2022-07-29T15:30:09.185Z,47.1
2022-07-29T15:31:25.391Z,45.4
2022-07-29T15:32:41.604Z,44.6
2022-07-29T15:33:57.810Z,43.5
2022-07-29T15:35:14.024Z,43.5
2022-07-29T15:36:30.241Z,43.1
2022-07-29T15:37:46.445Z,42.6
2022-07-29T15:39:02.657Z,41.9
2022-07-29T15:40:18.870Z,41.8
2022-07-29T15:41:35.082Z,40.7
2022-07-29T15:42:50.311Z,41.1
2022-07-29T15:44:06.523Z,41.1
2022-07-29T15:45:22.735Z,40.9
2022-07-29T15:46:38.946Z,40.1
2022-07-29T15:47:55.152Z,40.3
2022-07-29T15:49:11.363Z,40.3
2022-07-29T15:50:27.577Z,40
2022-07-29T15:51:43.789Z,39.6
2022-07-29T15:53:00.003Z,39.8
2022-07-29T15:54:16.213Z,39.8
2022-07-29T15:55:32.420Z,39.5
2022-07-29T15:56:48.633Z,39.2
2022-07-29T15:58:04.842Z,39.2
2022-07-29T15:59:20.069Z,39
2022-07-29T16:00:36.287Z,38.8
2022-07-29T16:01:52.498Z,39
2022-07-29T16:03:08.704Z,39.2
2022-07-29T16:04:24.914Z,39.1
2022-07-29T16:05:41.128Z,38.7
2022-07-29T16:06:57.339Z,38.8
2022-07-29T16:08:13.548Z,38.9
2022-07-29T16:09:29.765Z,38.8
2022-07-29T16:10:45.972Z,38.8
2022-07-29T16:12:02.179Z,39
2022-07-29T16:13:18.393Z,38.8
2022-07-29T16:14:34.604Z,38.7
2022-07-29T16:15:49.829Z,38.7
2022-07-29T16:17:06.040Z,38.8
2022-07-29T16:18:22.261Z,39
2022-07-29T16:19:38.465Z,39
2022-07-29T16:20:54.675Z,38.9
2022-07-29T16:22:10.887Z,38.9
2022-07-29T16:23:27.102Z,38.8
2022-07-29T16:24:43.311Z,39
2022-07-29T16:25:59.522Z,38.9
2022-07-29T16:27:15.733Z,39
2022-07-29T16:28:31.946Z,38.7
2022-07-29T16:29:48.162Z,38.7
2022-07-29T16:31:04.371Z,38.8
2022-07-29T16:32:19.598Z,38.8
2022-07-29T16:33:35.808Z,39
2022-07-29T16:34:52.016Z,38.9
2022-07-29T16:36:08.233Z,39.1
2022-07-29T16:37:23.000Z,39.1
2022-07-29T16:38:40.649Z,38.9
2022-07-29T16:39:56.863Z,38.8
2022-07-29T16:41:13.073Z,39
2022-07-29T16:42:29.288Z,38.7
2022-07-29T16:43:45.492Z,38.7
2022-07-29T16:45:01.709Z,38.7
2022-07-29T16:46:17.918Z,38.7
2022-07-29T16:47:34.134Z,38.6
2022-07-29T16:48:49.359Z,38.6
2022-07-29T16:50:05.573Z,38.7
